Bequimao, Brazil
Current Conditions -  °F | °C
As of 1:00 AM on Tuesday 21 Oct 2014 (Local Time) from SBSL Reporting Station
Broken Clouds Broken Clouds  
Wind Chill: 81°   Ceiling: 1700
Heat Index: 85°   Visibility: 6mi
Dew Point: 72°   Wind: 14mph
Humidity: 74%   Direction: 50°NE
Pressure: 29.85"   Gusts: NA
Location:  2.45°S, 44.78°W
Report Text: SBSL 210400Z 05012KT 9999 FEW010 BKN017 BKN070 27/22 Q1011
Loading
Personal Weather Stations






























Interactive Weather Map
Tropical Storm Tracking
New forecast layout! Learn more

10-Day Weather Forecast

Advertisements
Track Severe Weather on mobile